CheckWX is a tool to help pilots better visualize weather data.  It is not intended as a substitute for an official pre-flight weather briefing.

03:17:25 UTC

KCHK METAR
Chickasha Municipal Airport
Chickasha, Oklahoma, USA
Current

22 mins ago

KCHK 270255Z AUTO 13011KT 10SM BKN060 24/21 A2987 RMK AO2 T02370206
Observed
May-27 @ 02:55 UTC
Wind
  • 130° at 11 KTS
Visibility
10 SM
Flight Rules
VFR
Cloud Levels
  • Broken at 6,000' AGL
Temperature
24°C / 75°F
Dewpoint
21°C / 70°F
Humidity
83%
Altimeter
29.87" Hg
Pressure
1011.52 hPa
Previous

42 mins ago

KCHK 270235Z AUTO 13009KT 10SM OVC060 24/21 A2988 RMK AO2 T02420206
Observed
May-27 @ 02:35 UTC
Wind
  • 130° at 9 KTS
Visibility
10 SM
Flight Rules
VFR
Cloud Levels
  • Overcast at 6,000' AGL
Temperature
24°C / 75°F
Dewpoint
21°C / 70°F
Humidity
83%
Altimeter
29.88" Hg
Pressure
1011.82 hPa
Previous

1 hour ago

KCHK 270215Z AUTO 13009KT 10SM OVC060 24/21 A2988 RMK AO2 T02410210
Observed
May-27 @ 02:15 UTC
Wind
  • 130° at 9 KTS
Visibility
10 SM
Flight Rules
VFR
Cloud Levels
  • Overcast at 6,000' AGL
Temperature
24°C / 75°F
Dewpoint
21°C / 70°F
Humidity
83%
Altimeter
29.88" Hg
Pressure
1011.82 hPa